DLH698 LFSB-LIRP
Flight info
| Callsign | DLH698 |
|---|---|
| Flight time | 0h 55m |
| Altitude | 33000 |
| Route | ELBEG Y715 AMRUP N491 TRA N850 ODINA DCT SRN DCT ROBAS DCT MISPO DCT OSBUL DCT EKPAL DCT MIVKI |
| Aircraft | A320/M-SDE3FGHIRWY/LB1 |
Departure
| Time | 2026-04-30 20:32 |
|---|---|
| Airport | EuroAirport Basel–Mulhouse–Freiburg (LFSB) |
Arrival
| Time | 2026-04-30 21:27 |
|---|---|
| Airport | Pisa International Airport (LIRP) |
| Time | Latitude | Longitude | Altitude | Speed | Heading |
|---|---|---|---|---|---|
| 2026-04-30 19:58 | 47.59788 | 7.53170 | 896 ft | 0 kts | 65° |
| 2026-04-30 20:21 | 47.59777 | 7.53144 | 896 ft | 4 kts | 34° |
| 2026-04-30 20:21 | 47.59752 | 7.53130 | 896 ft | 4 kts | 21° |
| 2026-04-30 20:22 | 47.59734 | 7.53112 | 896 ft | 4 kts | 46° |
| 2026-04-30 20:22 | 47.59723 | 7.53082 | 896 ft | 4 kts | 108° |
| 2026-04-30 20:22 | 47.59739 | 7.53068 | 896 ft | 4 kts | 187° |
| 2026-04-30 20:22 | 47.59760 | 7.53071 | 896 ft | 0 kts | 187° |
| 2026-04-30 20:25 | 47.59748 | 7.53069 | 896 ft | 4 kts | 187° |
| 2026-04-30 20:25 | 47.59717 | 7.53063 | 896 ft | 5 kts | 187° |
| 2026-04-30 20:26 | 47.59659 | 7.52975 | 896 ft | 8 kts | 245° |
| 2026-04-30 20:26 | 47.59597 | 7.52813 | 896 ft | 10 kts | 200° |
| 2026-04-30 20:26 | 47.59527 | 7.52841 | 896 ft | 11 kts | 155° |
| 2026-04-30 20:27 | 47.59370 | 7.52950 | 896 ft | 14 kts | 155° |
| 2026-04-30 20:27 | 47.59194 | 7.53075 | 896 ft | 11 kts | 136° |
| 2026-04-30 20:28 | 47.59147 | 7.53273 | 896 ft | 9 kts | 109° |
| 2026-04-30 20:28 | 47.59175 | 7.53485 | 896 ft | 12 kts | 76° |
| 2026-04-30 20:29 | 47.59207 | 7.53681 | 896 ft | 7 kts | 77° |
| 2026-04-30 20:30 | 47.59244 | 7.53934 | 896 ft | 10 kts | 90° |
| 2026-04-30 20:30 | 47.59159 | 7.54010 | 896 ft | 2 kts | 257° |
| 2026-04-30 20:31 | 47.58807 | 7.51831 | 918 ft | 157 kts | 255° |
| 2026-04-30 20:32 | 47.58118 | 7.47045 | 2883 ft | 170 kts | 274° |
| 2026-04-30 20:32 | 47.59968 | 7.44771 | 3363 ft | 210 kts | 3° |
| 2026-04-30 20:33 | 47.61406 | 7.45526 | 3509 ft | 240 kts | 44° |
| 2026-04-30 20:33 | 47.63125 | 7.50015 | 5401 ft | 251 kts | 71° |
| 2026-04-30 20:33 | 47.63739 | 7.52456 | 6492 ft | 254 kts | 72° |
| 2026-04-30 20:34 | 47.64989 | 7.57496 | 8417 ft | 267 kts | 71° |
| 2026-04-30 20:34 | 47.65948 | 7.62886 | 10210 ft | 275 kts | 95° |
| 2026-04-30 20:35 | 47.65436 | 7.65601 | 11187 ft | 277 kts | 117° |
| 2026-04-30 20:35 | 47.64240 | 7.67873 | 11717 ft | 296 kts | 133° |
| 2026-04-30 20:35 | 47.61012 | 7.72568 | 12211 ft | 346 kts | 135° |
| 2026-04-30 20:36 | 47.59249 | 7.75040 | 12997 ft | 351 kts | 135° |
| 2026-04-30 20:36 | 47.57467 | 7.77539 | 13832 ft | 355 kts | 134° |
| 2026-04-30 20:36 | 47.53867 | 7.82635 | 15393 ft | 361 kts | 134° |
| 2026-04-30 20:37 | 47.52046 | 7.85235 | 16122 ft | 365 kts | 133° |
| 2026-04-30 20:37 | 47.50214 | 7.87857 | 16826 ft | 368 kts | 133° |
| 2026-04-30 20:37 | 47.48362 | 7.90510 | 17502 ft | 372 kts | 133° |
| 2026-04-30 20:37 | 47.46501 | 7.93175 | 18151 ft | 375 kts | 133° |
| 2026-04-30 20:38 | 47.44614 | 7.95874 | 18786 ft | 378 kts | 133° |
| 2026-04-30 20:38 | 47.42713 | 7.98590 | 19389 ft | 382 kts | 133° |
| 2026-04-30 20:38 | 47.40792 | 8.01329 | 19971 ft | 386 kts | 133° |
| 2026-04-30 20:39 | 47.36882 | 8.06882 | 21052 ft | 394 kts | 133° |
| 2026-04-30 20:39 | 47.34893 | 8.09693 | 21584 ft | 398 kts | 133° |
| 2026-04-30 20:39 | 47.32887 | 8.12531 | 22103 ft | 401 kts | 133° |
| 2026-04-30 20:40 | 47.28844 | 8.18253 | 23106 ft | 409 kts | 133° |
| 2026-04-30 20:40 | 47.26785 | 8.21166 | 23595 ft | 412 kts | 133° |
| 2026-04-30 20:40 | 47.24705 | 8.24101 | 24075 ft | 416 kts | 133° |
| 2026-04-30 20:41 | 47.20484 | 8.30043 | 25013 ft | 423 kts | 133° |
| 2026-04-30 20:41 | 47.18349 | 8.33041 | 25464 ft | 426 kts | 133° |
| 2026-04-30 20:41 | 47.16169 | 8.36101 | 25903 ft | 429 kts | 133° |
| 2026-04-30 20:41 | 47.14033 | 8.39103 | 26323 ft | 432 kts | 133° |
| 2026-04-30 20:42 | 47.11852 | 8.42161 | 26743 ft | 435 kts | 133° |
| 2026-04-30 20:42 | 47.09654 | 8.45233 | 27148 ft | 438 kts | 133° |
| 2026-04-30 20:42 | 47.04863 | 8.50850 | 28019 ft | 447 kts | 147° |
| 2026-04-30 20:43 | 47.02004 | 8.52775 | 28188 ft | 459 kts | 158° |
| 2026-04-30 20:43 | 46.98882 | 8.53896 | 28591 ft | 462 kts | 169° |
| 2026-04-30 20:43 | 46.95704 | 8.54359 | 29224 ft | 459 kts | 172° |
| 2026-04-30 20:44 | 46.89326 | 8.55269 | 29986 ft | 461 kts | 171° |
| 2026-04-30 20:44 | 46.86138 | 8.55746 | 30442 ft | 460 kts | 171° |
| 2026-04-30 20:44 | 46.79775 | 8.56690 | 31383 ft | 459 kts | 172° |
| 2026-04-30 20:45 | 46.73420 | 8.57608 | 32298 ft | 458 kts | 172° |
| 2026-04-30 20:45 | 46.70246 | 8.58058 | 32747 ft | 458 kts | 172° |
| 2026-04-30 20:45 | 46.67073 | 8.58506 | 33131 ft | 459 kts | 172° |
| 2026-04-30 20:46 | 46.57596 | 8.59853 | 33291 ft | 457 kts | 172° |
| 2026-04-30 20:46 | 46.54433 | 8.60304 | 33290 ft | 457 kts | 172° |
| 2026-04-30 20:47 | 46.44953 | 8.61652 | 33300 ft | 456 kts | 172° |
| 2026-04-30 20:48 | 46.35465 | 8.62993 | 33301 ft | 456 kts | 172° |
| 2026-04-30 20:48 | 46.29146 | 8.63877 | 33309 ft | 456 kts | 172° |
| 2026-04-30 20:49 | 46.22824 | 8.64768 | 33315 ft | 456 kts | 172° |
| 2026-04-30 20:50 | 46.13351 | 8.66157 | 33326 ft | 455 kts | 168° |
| 2026-04-30 20:50 | 46.07373 | 8.68910 | 33343 ft | 449 kts | 150° |
| 2026-04-30 20:51 | 46.01886 | 8.73191 | 33324 ft | 449 kts | 148° |
| 2026-04-30 20:51 | 45.93621 | 8.79663 | 33301 ft | 453 kts | 149° |
| 2026-04-30 20:52 | 45.88115 | 8.83951 | 33304 ft | 454 kts | 149° |
| 2026-04-30 20:53 | 45.79762 | 8.90426 | 33306 ft | 456 kts | 149° |
| 2026-04-30 20:53 | 45.74179 | 8.94750 | 33305 ft | 456 kts | 149° |
| 2026-04-30 20:54 | 45.65838 | 9.01411 | 33310 ft | 457 kts | 142° |
| 2026-04-30 20:55 | 45.59090 | 9.10836 | 33312 ft | 452 kts | 129° |
| 2026-04-30 20:55 | 45.54852 | 9.17490 | 33306 ft | 453 kts | 129° |
| 2026-04-30 20:56 | 45.48470 | 9.27461 | 33298 ft | 454 kts | 129° |
| 2026-04-30 20:57 | 45.42108 | 9.37393 | 33300 ft | 455 kts | 129° |
| 2026-04-30 20:57 | 45.37838 | 9.44043 | 33302 ft | 455 kts | 129° |
| 2026-04-30 20:58 | 45.31407 | 9.54017 | 33296 ft | 456 kts | 129° |
| 2026-04-30 20:58 | 45.27112 | 9.60657 | 33293 ft | 457 kts | 129° |
| 2026-04-30 20:59 | 45.20656 | 9.70598 | 33281 ft | 457 kts | 129° |
| 2026-04-30 21:00 | 45.13356 | 9.85220 | 33277 ft | 454 kts | 120° |
| 2026-04-30 21:01 | 45.08019 | 9.96354 | 33267 ft | 455 kts | 120° |
| 2026-04-30 21:02 | 45.02491 | 10.07290 | 33255 ft | 463 kts | 129° |
| 2026-04-30 21:02 | 44.97532 | 10.13219 | 33273 ft | 470 kts | 141° |
| 2026-04-30 21:03 | 44.92290 | 10.18729 | 33298 ft | 470 kts | 141° |
| 2026-04-30 21:03 | 44.87839 | 10.23206 | 33314 ft | 470 kts | 148° |
| 2026-04-30 21:03 | 44.84887 | 10.25194 | 33313 ft | 472 kts | 159° |
| 2026-04-30 21:04 | 44.80653 | 10.26655 | 33324 ft | 473 kts | 174° |
| 2026-04-30 21:04 | 44.72065 | 10.25385 | 33283 ft | 466 kts | 198° |
| 2026-04-30 21:05 | 44.68910 | 10.24158 | 33033 ft | 464 kts | 198° |
| 2026-04-30 21:05 | 44.65855 | 10.22975 | 32690 ft | 456 kts | 198° |
| 2026-04-30 21:05 | 44.62812 | 10.21803 | 32130 ft | 451 kts | 198° |
| 2026-04-30 21:05 | 44.59804 | 10.20648 | 31579 ft | 445 kts | 198° |
| 2026-04-30 21:06 | 44.56832 | 10.19506 | 31030 ft | 440 kts | 198° |
| 2026-04-30 21:06 | 44.53889 | 10.18372 | 30482 ft | 435 kts | 198° |
| 2026-04-30 21:06 | 44.50988 | 10.17252 | 29970 ft | 430 kts | 198° |
| 2026-04-30 21:06 | 44.48124 | 10.16146 | 29466 ft | 424 kts | 198° |
| 2026-04-30 21:07 | 44.45287 | 10.15083 | 28965 ft | 420 kts | 197° |
| 2026-04-30 21:07 | 44.42473 | 10.14074 | 28469 ft | 415 kts | 197° |
| 2026-04-30 21:07 | 44.39682 | 10.13101 | 27970 ft | 411 kts | 197° |
| 2026-04-30 21:07 | 44.36910 | 10.12144 | 27475 ft | 407 kts | 196° |
| 2026-04-30 21:08 | 44.34175 | 10.11199 | 26976 ft | 404 kts | 197° |
| 2026-04-30 21:08 | 44.31452 | 10.10251 | 26480 ft | 401 kts | 197° |
| 2026-04-30 21:08 | 44.28757 | 10.09304 | 25983 ft | 398 kts | 197° |
| 2026-04-30 21:08 | 44.26080 | 10.08364 | 25486 ft | 396 kts | 195° |
| 2026-04-30 21:09 | 44.23362 | 10.07801 | 24986 ft | 395 kts | 184° |
| 2026-04-30 21:09 | 44.20620 | 10.07899 | 24483 ft | 394 kts | 173° |
| 2026-04-30 21:09 | 44.17970 | 10.08628 | 23982 ft | 392 kts | 164° |
| 2026-04-30 21:09 | 44.15338 | 10.09580 | 23481 ft | 390 kts | 165° |
| 2026-04-30 21:10 | 44.12674 | 10.10537 | 22833 ft | 392 kts | 165° |
| 2026-04-30 21:10 | 44.10041 | 10.11479 | 22274 ft | 391 kts | 165° |
| 2026-04-30 21:10 | 44.07413 | 10.12415 | 21781 ft | 387 kts | 165° |
| 2026-04-30 21:10 | 44.04842 | 10.13329 | 21304 ft | 384 kts | 165° |
| 2026-04-30 21:11 | 44.02270 | 10.14261 | 20824 ft | 380 kts | 165° |
| 2026-04-30 21:11 | 43.99723 | 10.15197 | 20349 ft | 377 kts | 165° |
| 2026-04-30 21:11 | 43.97194 | 10.16128 | 19874 ft | 374 kts | 165° |
| 2026-04-30 21:11 | 43.94667 | 10.16884 | 19409 ft | 370 kts | 174° |
| 2026-04-30 21:12 | 43.92111 | 10.16864 | 18892 ft | 367 kts | 189° |
| 2026-04-30 21:12 | 43.89671 | 10.15995 | 18490 ft | 358 kts | 204° |
| 2026-04-30 21:12 | 43.87490 | 10.14408 | 17939 ft | 354 kts | 218° |
| 2026-04-30 21:12 | 43.85666 | 10.12162 | 17449 ft | 347 kts | 232° |
| 2026-04-30 21:13 | 43.84093 | 10.09685 | 16989 ft | 339 kts | 234° |
| 2026-04-30 21:13 | 43.82752 | 10.06992 | 16146 ft | 341 kts | 241° |
| 2026-04-30 21:13 | 43.81503 | 10.04235 | 15631 ft | 335 kts | 240° |
| 2026-04-30 21:13 | 43.80275 | 10.01524 | 15059 ft | 331 kts | 240° |
| 2026-04-30 21:14 | 43.78902 | 9.98985 | 14360 ft | 331 kts | 229° |
| 2026-04-30 21:14 | 43.77170 | 9.96870 | 13649 ft | 332 kts | 217° |
| 2026-04-30 21:14 | 43.75324 | 9.95002 | 13064 ft | 326 kts | 217° |
| 2026-04-30 21:14 | 43.73503 | 9.93150 | 12524 ft | 320 kts | 217° |
| 2026-04-30 21:15 | 43.71747 | 9.91358 | 12177 ft | 309 kts | 217° |
| 2026-04-30 21:15 | 43.70047 | 9.89621 | 11875 ft | 298 kts | 217° |
| 2026-04-30 21:15 | 43.68310 | 9.88132 | 11456 ft | 292 kts | 200° |
| 2026-04-30 21:15 | 43.66322 | 9.87599 | 10758 ft | 295 kts | 175° |
| 2026-04-30 21:16 | 43.64384 | 9.88204 | 10520 ft | 279 kts | 154° |
| 2026-04-30 21:16 | 43.62669 | 9.89346 | 10019 ft | 278 kts | 152° |
| 2026-04-30 21:16 | 43.60928 | 9.90566 | 9502 ft | 277 kts | 152° |
| 2026-04-30 21:16 | 43.59244 | 9.91764 | 9040 ft | 274 kts | 151° |
| 2026-04-30 21:17 | 43.57562 | 9.92970 | 8577 ft | 271 kts | 151° |
| 2026-04-30 21:17 | 43.55888 | 9.94167 | 8185 ft | 271 kts | 151° |
| 2026-04-30 21:17 | 43.54219 | 9.95354 | 7888 ft | 268 kts | 151° |
| 2026-04-30 21:17 | 43.52580 | 9.96516 | 7718 ft | 261 kts | 151° |
| 2026-04-30 21:18 | 43.51004 | 9.97631 | 7589 ft | 248 kts | 151° |
| 2026-04-30 21:18 | 43.49495 | 9.98694 | 7451 ft | 238 kts | 151° |
| 2026-04-30 21:18 | 43.48046 | 9.99722 | 7250 ft | 229 kts | 149° |
| 2026-04-30 21:18 | 43.46802 | 10.01003 | 6986 ft | 223 kts | 133° |
| 2026-04-30 21:19 | 43.45801 | 10.02718 | 6441 ft | 233 kts | 124° |
| 2026-04-30 21:19 | 43.44848 | 10.04492 | 6250 ft | 228 kts | 125° |
| 2026-04-30 21:19 | 43.43909 | 10.06227 | 6012 ft | 225 kts | 125° |
| 2026-04-30 21:19 | 43.42978 | 10.07952 | 5742 ft | 224 kts | 124° |
| 2026-04-30 21:20 | 43.42354 | 10.09881 | 5420 ft | 222 kts | 96° |
| 2026-04-30 21:20 | 43.42481 | 10.11949 | 5182 ft | 216 kts | 68° |
| 2026-04-30 21:20 | 43.43283 | 10.13677 | 4836 ft | 218 kts | 41° |
| 2026-04-30 21:20 | 43.44487 | 10.14958 | 4550 ft | 218 kts | 36° |
| 2026-04-30 21:21 | 43.45699 | 10.16177 | 4335 ft | 215 kts | 36° |
| 2026-04-30 21:21 | 43.46897 | 10.17394 | 4085 ft | 213 kts | 36° |
| 2026-04-30 21:21 | 43.49275 | 10.19822 | 3572 ft | 212 kts | 36° |
| 2026-04-30 21:22 | 43.50458 | 10.21032 | 3379 ft | 209 kts | 36° |
| 2026-04-30 21:22 | 43.53801 | 10.24453 | 3015 ft | 191 kts | 36° |
| 2026-04-30 21:23 | 43.54840 | 10.25518 | 2928 ft | 180 kts | 36° |
| 2026-04-30 21:23 | 43.55822 | 10.26524 | 2792 ft | 173 kts | 36° |
| 2026-04-30 21:23 | 43.57719 | 10.28468 | 2377 ft | 167 kts | 37° |
| 2026-04-30 21:24 | 43.58658 | 10.29432 | 2158 ft | 169 kts | 37° |
| 2026-04-30 21:24 | 43.59596 | 10.30394 | 1942 ft | 167 kts | 37° |
| 2026-04-30 21:24 | 43.60494 | 10.31316 | 1725 ft | 153 kts | 38° |
| 2026-04-30 21:24 | 43.61309 | 10.32152 | 1520 ft | 143 kts | 38° |
| 2026-04-30 21:25 | 43.62906 | 10.33788 | 1126 ft | 142 kts | 41° |
| 2026-04-30 21:25 | 43.63694 | 10.34603 | 941 ft | 141 kts | 41° |
| 2026-04-30 21:25 | 43.64478 | 10.35410 | 769 ft | 141 kts | 41° |
| 2026-04-30 21:26 | 43.66044 | 10.37018 | 410 ft | 140 kts | 41° |
| 2026-04-30 21:26 | 43.66823 | 10.37821 | 215 ft | 139 kts | 41° |
| 2026-04-30 21:27 | 43.68319 | 10.39376 | 17 ft | 112 kts | 38° |
| 2026-04-30 21:27 | 43.68784 | 10.39847 | 17 ft | 57 kts | 37° |
| 2026-04-30 21:27 | 43.68970 | 10.40039 | 17 ft | 20 kts | 37° |
| 2026-04-30 21:28 | 43.69197 | 10.40276 | 17 ft | 16 kts | 36° |
| 2026-04-30 21:28 | 43.69271 | 10.40303 | 17 ft | 12 kts | 327° |
| 2026-04-30 21:28 | 43.69394 | 10.40115 | 17 ft | 15 kts | 336° |
| 2026-04-30 21:29 | 43.69497 | 10.40080 | 17 ft | 16 kts | 351° |
| 2026-04-30 21:29 | 43.69682 | 10.40067 | 17 ft | 3 kts | 36° |
| 2026-04-30 21:30 | 43.69736 | 10.40087 | 17 ft | 3 kts | 8° |
| 2026-04-30 21:31 | 43.69764 | 10.40093 | 17 ft | 0 kts | 8° |